sensor_id;sensor_type;location;lat;lon;timestamp;temperature;humidity
70534;SHT31;58088;51.186;17.130;2023-05-07T00:00:58;10.32;75.89
70534;SHT31;58088;51.186;17.130;2023-05-07T00:03:25;10.32;75.88
70534;SHT31;58088;51.186;17.130;2023-05-07T00:05:52;10.32;75.81
70534;SHT31;58088;51.186;17.130;2023-05-07T00:08:19;10.34;75.74
70534;SHT31;58088;51.186;17.130;2023-05-07T00:10:46;10.32;75.70
70534;SHT31;58088;51.186;17.130;2023-05-07T00:13:12;10.30;75.72
70534;SHT31;58088;51.186;17.130;2023-05-07T00:15:38;10.27;75.86
70534;SHT31;58088;51.186;17.130;2023-05-07T00:18:04;10.28;75.89
70534;SHT31;58088;51.186;17.130;2023-05-07T00:20:30;10.27;75.91
70534;SHT31;58088;51.186;17.130;2023-05-07T00:22:57;10.30;75.98
70534;SHT31;58088;51.186;17.130;2023-05-07T00:25:23;10.31;75.90
70534;SHT31;58088;51.186;17.130;2023-05-07T00:27:49;10.32;75.84
70534;SHT31;58088;51.186;17.130;2023-05-07T00:30:15;10.31;75.89
70534;SHT31;58088;51.186;17.130;2023-05-07T00:32:41;10.29;76.00
70534;SHT31;58088;51.186;17.130;2023-05-07T00:35:08;10.28;76.00
70534;SHT31;58088;51.186;17.130;2023-05-07T00:37:34;10.28;75.99
70534;SHT31;58088;51.186;17.130;2023-05-07T00:40:01;10.28;75.96
70534;SHT31;58088;51.186;17.130;2023-05-07T00:42:30;10.26;76.00
70534;SHT31;58088;51.186;17.130;2023-05-07T00:44:58;10.23;76.09
70534;SHT31;58088;51.186;17.130;2023-05-07T00:47:25;10.22;76.13
70534;SHT31;58088;51.186;17.130;2023-05-07T00:49:51;10.19;76.13
70534;SHT31;58088;51.186;17.130;2023-05-07T00:52:17;10.17;76.20
70534;SHT31;58088;51.186;17.130;2023-05-07T00:54:49;10.18;76.16
70534;SHT31;58088;51.186;17.130;2023-05-07T00:57:15;10.16;76.10
70534;SHT31;58088;51.186;17.130;2023-05-07T00:59:41;10.17;76.11
70534;SHT31;58088;51.186;17.130;2023-05-07T01:02:08;10.19;76.10
70534;SHT31;58088;51.186;17.130;2023-05-07T01:04:35;10.18;76.08
70534;SHT31;58088;51.186;17.130;2023-05-07T01:07:02;10.16;76.08
70534;SHT31;58088;51.186;17.130;2023-05-07T01:09:30;10.12;76.12
70534;SHT31;58088;51.186;17.130;2023-05-07T01:11:57;10.09;76.22
70534;SHT31;58088;51.186;17.130;2023-05-07T01:14:25;10.09;76.35
70534;SHT31;58088;51.186;17.130;2023-05-07T01:16:51;10.07;76.38
70534;SHT31;58088;51.186;17.130;2023-05-07T01:19:19;10.07;76.39
70534;SHT31;58088;51.186;17.130;2023-05-07T01:21:47;10.09;76.34
70534;SHT31;58088;51.186;17.130;2023-05-07T01:24:16;10.08;76.30
70534;SHT31;58088;51.186;17.130;2023-05-07T01:26:43;10.06;76.28
70534;SHT31;58088;51.186;17.130;2023-05-07T01:29:11;10.05;76.25
70534;SHT31;58088;51.186;17.130;2023-05-07T01:31:37;10.06;76.24
70534;SHT31;58088;51.186;17.130;2023-05-07T01:34:07;10.08;76.12
70534;SHT31;58088;51.186;17.130;2023-05-07T01:36:37;10.07;76.10
70534;SHT31;58088;51.186;17.130;2023-05-07T01:39:05;10.07;76.05
70534;SHT31;58088;51.186;17.130;2023-05-07T01:41:33;10.07;76.06
70534;SHT31;58088;51.186;17.130;2023-05-07T01:44:01;10.06;76.01
70534;SHT31;58088;51.186;17.130;2023-05-07T01:46:30;10.06;76.05
70534;SHT31;58088;51.186;17.130;2023-05-07T01:48:58;10.06;76.01
70534;SHT31;58088;51.186;17.130;2023-05-07T01:51:25;10.06;75.96
70534;SHT31;58088;51.186;17.130;2023-05-07T01:53:51;10.05;75.91
70534;SHT31;58088;51.186;17.130;2023-05-07T01:56:19;10.02;76.03
70534;SHT31;58088;51.186;17.130;2023-05-07T01:58:46;10.00;76.06
70534;SHT31;58088;51.186;17.130;2023-05-07T02:01:13;10.00;75.97
70534;SHT31;58088;51.186;17.130;2023-05-07T02:04:18;10.01;75.95
70534;SHT31;58088;51.186;17.130;2023-05-07T02:06:44;9.99;75.85
70534;SHT31;58088;51.186;17.130;2023-05-07T02:09:13;9.98;75.93
70534;SHT31;58088;51.186;17.130;2023-05-07T02:11:42;9.97;76.04
70534;SHT31;58088;51.186;17.130;2023-05-07T02:14:08;9.98;76.11
70534;SHT31;58088;51.186;17.130;2023-05-07T02:16:34;9.97;76.12
70534;SHT31;58088;51.186;17.130;2023-05-07T02:19:03;9.98;76.11
70534;SHT31;58088;51.186;17.130;2023-05-07T02:21:29;9.95;76.09
70534;SHT31;58088;51.186;17.130;2023-05-07T02:23:55;9.93;76.14
70534;SHT31;58088;51.186;17.130;2023-05-07T02:26:22;9.93;76.09
70534;SHT31;58088;51.186;17.130;2023-05-07T02:28:48;9.88;76.05
70534;SHT31;58088;51.186;17.130;2023-05-07T02:31:14;9.87;76.04
70534;SHT31;58088;51.186;17.130;2023-05-07T02:33:40;9.89;75.97
70534;SHT31;58088;51.186;17.130;2023-05-07T02:36:10;9.88;75.82
70534;SHT31;58088;51.186;17.130;2023-05-07T02:39:14;9.88;75.76
70534;SHT31;58088;51.186;17.130;2023-05-07T02:41:41;9.83;75.64
70534;SHT31;58088;51.186;17.130;2023-05-07T02:44:07;9.84;75.67
70534;SHT31;58088;51.186;17.130;2023-05-07T02:46:33;9.83;75.61
70534;SHT31;58088;51.186;17.130;2023-05-07T02:49:03;9.82;75.70
70534;SHT31;58088;51.186;17.130;2023-05-07T02:51:29;9.83;75.70
70534;SHT31;58088;51.186;17.130;2023-05-07T02:53:57;9.87;75.70
70534;SHT31;58088;51.186;17.130;2023-05-07T02:56:25;9.88;75.69
70534;SHT31;58088;51.186;17.130;2023-05-07T02:58:52;9.87;75.70
70534;SHT31;58088;51.186;17.130;2023-05-07T03:01:19;9.85;75.69
70534;SHT31;58088;51.186;17.130;2023-05-07T03:04:04;9.83;75.71
70534;SHT31;58088;51.186;17.130;2023-05-07T03:06:30;9.82;75.70
70534;SHT31;58088;51.186;17.130;2023-05-07T03:08:56;9.84;75.77
70534;SHT31;58088;51.186;17.130;2023-05-07T03:11:23;9.84;75.70
70534;SHT31;58088;51.186;17.130;2023-05-07T03:13:49;9.81;75.88
70534;SHT31;58088;51.186;17.130;2023-05-07T03:16:16;9.81;75.99
70534;SHT31;58088;51.186;17.130;2023-05-07T03:18:42;9.79;75.98
70534;SHT31;58088;51.186;17.130;2023-05-07T03:21:09;9.75;75.84
70534;SHT31;58088;51.186;17.130;2023-05-07T03:23:35;9.73;75.85
70534;SHT31;58088;51.186;17.130;2023-05-07T03:26:01;9.76;75.79
70534;SHT31;58088;51.186;17.130;2023-05-07T03:28:28;9.75;75.69
70534;SHT31;58088;51.186;17.130;2023-05-07T03:30:58;9.72;75.62
70534;SHT31;58088;51.186;17.130;2023-05-07T03:33:24;9.71;75.66
70534;SHT31;58088;51.186;17.130;2023-05-07T03:35:51;9.70;75.54
70534;SHT31;58088;51.186;17.130;2023-05-07T03:38:20;9.71;75.60
70534;SHT31;58088;51.186;17.130;2023-05-07T03:40:46;9.72;75.62
70534;SHT31;58088;51.186;17.130;2023-05-07T03:43:12;9.71;75.72
70534;SHT31;58088;51.186;17.130;2023-05-07T03:45:41;9.68;75.86
70534;SHT31;58088;51.186;17.130;2023-05-07T03:48:23;9.66;76.03
70534;SHT31;58088;51.186;17.130;2023-05-07T03:50:49;9.58;76.23
70534;SHT31;58088;51.186;17.130;2023-05-07T03:53:16;9.57;76.35
70534;SHT31;58088;51.186;17.130;2023-05-07T03:55:42;9.59;76.37
70534;SHT31;58088;51.186;17.130;2023-05-07T03:58:09;9.60;76.34
70534;SHT31;58088;51.186;17.130;2023-05-07T04:00:36;9.58;76.38
70534;SHT31;58088;51.186;17.130;2023-05-07T04:03:09;9.59;76.48
70534;SHT31;58088;51.186;17.130;2023-05-07T04:05:35;9.59;76.39
70534;SHT31;58088;51.186;17.130;2023-05-07T04:08:01;9.56;76.28
70534;SHT31;58088;51.186;17.130;2023-05-07T04:10:34;9.57;76.38
70534;SHT31;58088;51.186;17.130;2023-05-07T04:13:03;9.58;76.34
70534;SHT31;58088;51.186;17.130;2023-05-07T04:15:30;9.58;76.37
70534;SHT31;58088;51.186;17.130;2023-05-07T04:17:56;9.59;76.34
70534;SHT31;58088;51.186;17.130;2023-05-07T04:20:23;9.60;76.22
70534;SHT31;58088;51.186;17.130;2023-05-07T04:22:54;9.56;76.20
70534;SHT31;58088;51.186;17.130;2023-05-07T04:25:21;9.54;76.34
70534;SHT31;58088;51.186;17.130;2023-05-07T04:27:51;9.56;76.39
70534;SHT31;58088;51.186;17.130;2023-05-07T04:30:17;9.56;76.44
70534;SHT31;58088;51.186;17.130;2023-05-07T04:32:43;9.56;76.41
70534;SHT31;58088;51.186;17.130;2023-05-07T04:35:10;9.54;76.34
70534;SHT31;58088;51.186;17.130;2023-05-07T04:37:38;9.57;76.30
70534;SHT31;58088;51.186;17.130;2023-05-07T04:40:05;9.58;76.19
70534;SHT31;58088;51.186;17.130;2023-05-07T04:42:33;9.56;76.10
70534;SHT31;58088;51.186;17.130;2023-05-07T04:45:00;9.55;76.07
70534;SHT31;58088;51.186;17.130;2023-05-07T04:47:28;9.53;76.06
70534;SHT31;58088;51.186;17.130;2023-05-07T04:49:54;9.54;76.05
70534;SHT31;58088;51.186;17.130;2023-05-07T04:52:20;9.53;76.03
70534;SHT31;58088;51.186;17.130;2023-05-07T04:54:47;9.53;76.00
70534;SHT31;58088;51.186;17.130;2023-05-07T04:57:14;9.55;76.08
70534;SHT31;58088;51.186;17.130;2023-05-07T04:59:41;9.55;76.10
70534;SHT31;58088;51.186;17.130;2023-05-07T05:02:07;9.56;76.10
70534;SHT31;58088;51.186;17.130;2023-05-07T05:04:33;9.57;76.12
70534;SHT31;58088;51.186;17.130;2023-05-07T05:07:00;9.56;76.04
70534;SHT31;58088;51.186;17.130;2023-05-07T05:09:27;9.54;75.98
70534;SHT31;58088;51.186;17.130;2023-05-07T05:11:53;9.56;76.17
70534;SHT31;58088;51.186;17.130;2023-05-07T05:14:19;9.56;76.11
70534;SHT31;58088;51.186;17.130;2023-05-07T05:16:45;9.55;75.86
70534;SHT31;58088;51.186;17.130;2023-05-07T05:19:12;9.52;75.73
70534;SHT31;58088;51.186;17.130;2023-05-07T05:21:43;9.52;75.62
70534;SHT31;58088;51.186;17.130;2023-05-07T05:24:09;9.51;75.60
70534;SHT31;58088;51.186;17.130;2023-05-07T05:26:36;9.54;75.60
70534;SHT31;58088;51.186;17.130;2023-05-07T05:29:02;9.54;75.50
70534;SHT31;58088;51.186;17.130;2023-05-07T05:31:29;9.55;75.47
70534;SHT31;58088;51.186;17.130;2023-05-07T05:33:55;9.65;75.27
70534;SHT31;58088;51.186;17.130;2023-05-07T05:36:21;9.68;75.13
70534;SHT31;58088;51.186;17.130;2023-05-07T05:38:49;9.72;75.09
70534;SHT31;58088;51.186;17.130;2023-05-07T05:41:15;9.72;74.84
70534;SHT31;58088;51.186;17.130;2023-05-07T05:43:42;9.72;74.75
70534;SHT31;58088;51.186;17.130;2023-05-07T05:46:08;9.75;74.67
70534;SHT31;58088;51.186;17.130;2023-05-07T05:48:37;9.74;74.52
70534;SHT31;58088;51.186;17.130;2023-05-07T05:51:03;9.76;74.50
70534;SHT31;58088;51.186;17.130;2023-05-07T05:53:30;9.75;74.28
70534;SHT31;58088;51.186;17.130;2023-05-07T05:55:56;9.79;74.31
70534;SHT31;58088;51.186;17.130;2023-05-07T05:58:22;9.81;74.20
70534;SHT31;58088;51.186;17.130;2023-05-07T06:00:52;9.82;74.08
70534;SHT31;58088;51.186;17.130;2023-05-07T06:03:20;9.84;74.07
70534;SHT31;58088;51.186;17.130;2023-05-07T06:05:46;9.88;74.02
70534;SHT31;58088;51.186;17.130;2023-05-07T06:08:13;9.91;73.73
70534;SHT31;58088;51.186;17.130;2023-05-07T06:10:42;9.90;73.59
70534;SHT31;58088;51.186;17.130;2023-05-07T06:13:09;9.91;73.50
70534;SHT31;58088;51.186;17.130;2023-05-07T06:15:36;9.90;73.52
70534;SHT31;58088;51.186;17.130;2023-05-07T06:18:06;9.93;73.44
70534;SHT31;58088;51.186;17.130;2023-05-07T06:20:32;9.90;73.30
70534;SHT31;58088;51.186;17.130;2023-05-07T06:22:59;9.92;73.52
70534;SHT31;58088;51.186;17.130;2023-05-07T06:25:26;9.93;73.37
70534;SHT31;58088;51.186;17.130;2023-05-07T06:27:53;9.94;73.33
70534;SHT31;58088;51.186;17.130;2023-05-07T06:30:19;9.96;73.24
70534;SHT31;58088;51.186;17.130;2023-05-07T06:32:45;10.01;73.15
70534;SHT31;58088;51.186;17.130;2023-05-07T06:35:12;10.01;72.54
70534;SHT31;58088;51.186;17.130;2023-05-07T06:37:39;9.99;72.18
70534;SHT31;58088;51.186;17.130;2023-05-07T06:40:11;9.98;72.32
70534;SHT31;58088;51.186;17.130;2023-05-07T06:42:38;10.00;72.19
70534;SHT31;58088;51.186;17.130;2023-05-07T06:45:20;10.02;72.03
70534;SHT31;58088;51.186;17.130;2023-05-07T06:47:47;10.05;71.77
70534;SHT31;58088;51.186;17.130;2023-05-07T06:50:13;9.99;71.54
70534;SHT31;58088;51.186;17.130;2023-05-07T06:52:42;9.96;71.48
70534;SHT31;58088;51.186;17.130;2023-05-07T06:55:09;9.97;71.53
70534;SHT31;58088;51.186;17.130;2023-05-07T06:57:37;10.00;71.27
70534;SHT31;58088;51.186;17.130;2023-05-07T07:00:04;10.02;71.02
70534;SHT31;58088;51.186;17.130;2023-05-07T07:02:39;10.03;71.02
70534;SHT31;58088;51.186;17.130;2023-05-07T07:05:06;10.06;70.98
70534;SHT31;58088;51.186;17.130;2023-05-07T07:07:33;10.08;70.87
70534;SHT31;58088;51.186;17.130;2023-05-07T07:09:59;10.10;70.76
70534;SHT31;58088;51.186;17.130;2023-05-07T07:12:25;10.12;70.84
70534;SHT31;58088;51.186;17.130;2023-05-07T07:14:55;10.15;70.78
70534;SHT31;58088;51.186;17.130;2023-05-07T07:17:22;10.15;70.73
70534;SHT31;58088;51.186;17.130;2023-05-07T07:19:48;10.16;70.88
70534;SHT31;58088;51.186;17.130;2023-05-07T07:22:14;10.20;70.97
70534;SHT31;58088;51.186;17.130;2023-05-07T07:24:41;10.20;70.98
70534;SHT31;58088;51.186;17.130;2023-05-07T07:27:08;10.22;71.07
70534;SHT31;58088;51.186;17.130;2023-05-07T07:29:34;10.22;70.95
70534;SHT31;58088;51.186;17.130;2023-05-07T07:32:01;10.21;71.03
70534;SHT31;58088;51.186;17.130;2023-05-07T07:34:27;10.22;70.99
70534;SHT31;58088;51.186;17.130;2023-05-07T07:36:53;10.23;71.03
70534;SHT31;58088;51.186;17.130;2023-05-07T07:39:19;10.22;70.86
70534;SHT31;58088;51.186;17.130;2023-05-07T07:41:47;10.18;70.87
70534;SHT31;58088;51.186;17.130;2023-05-07T07:44:13;10.17;70.71
70534;SHT31;58088;51.186;17.130;2023-05-07T07:46:40;10.18;70.76
70534;SHT31;58088;51.186;17.130;2023-05-07T07:49:06;10.18;70.73
70534;SHT31;58088;51.186;17.130;2023-05-07T07:51:33;10.15;70.62
70534;SHT31;58088;51.186;17.130;2023-05-07T07:54:00;10.13;70.63
70534;SHT31;58088;51.186;17.130;2023-05-07T07:56:28;10.15;70.69
70534;SHT31;58088;51.186;17.130;2023-05-07T07:58:55;10.15;70.72
70534;SHT31;58088;51.186;17.130;2023-05-07T08:01:21;10.10;70.75
70534;SHT31;58088;51.186;17.130;2023-05-07T08:03:47;10.09;70.78
70534;SHT31;58088;51.186;17.130;2023-05-07T08:06:15;10.09;70.82
70534;SHT31;58088;51.186;17.130;2023-05-07T08:08:41;10.06;70.87
70534;SHT31;58088;51.186;17.130;2023-05-07T08:11:08;10.04;71.06
70534;SHT31;58088;51.186;17.130;2023-05-07T08:13:35;10.15;71.21
70534;SHT31;58088;51.186;17.130;2023-05-07T08:16:03;10.17;70.93
70534;SHT31;58088;51.186;17.130;2023-05-07T08:18:30;10.13;70.86
70534;SHT31;58088;51.186;17.130;2023-05-07T08:20:57;10.12;70.82
70534;SHT31;58088;51.186;17.130;2023-05-07T08:23:24;10.15;70.87
70534;SHT31;58088;51.186;17.130;2023-05-07T08:25:52;10.15;70.87
70534;SHT31;58088;51.186;17.130;2023-05-07T08:28:19;10.12;70.97
70534;SHT31;58088;51.186;17.130;2023-05-07T08:30:47;10.09;70.93
70534;SHT31;58088;51.186;17.130;2023-05-07T08:33:13;10.05;70.85
70534;SHT31;58088;51.186;17.130;2023-05-07T08:35:39;10.02;71.03
70534;SHT31;58088;51.186;17.130;2023-05-07T08:38:06;10.00;70.99
70534;SHT31;58088;51.186;17.130;2023-05-07T08:40:34;10.01;70.86
70534;SHT31;58088;51.186;17.130;2023-05-07T08:43:07;10.04;70.73
70534;SHT31;58088;51.186;17.130;2023-05-07T08:45:35;10.08;70.60
70534;SHT31;58088;51.186;17.130;2023-05-07T08:48:14;10.18;70.76
70534;SHT31;58088;51.186;17.130;2023-05-07T08:50:45;10.25;70.51
70534;SHT31;58088;51.186;17.130;2023-05-07T08:53:12;10.27;70.41
70534;SHT31;58088;51.186;17.130;2023-05-07T08:55:41;10.30;70.29
70534;SHT31;58088;51.186;17.130;2023-05-07T08:58:07;10.35;69.99
70534;SHT31;58088;51.186;17.130;2023-05-07T09:00:35;10.36;69.73
70534;SHT31;58088;51.186;17.130;2023-05-07T09:03:04;10.33;69.52
70534;SHT31;58088;51.186;17.130;2023-05-07T09:05:30;10.27;69.35
70534;SHT31;58088;51.186;17.130;2023-05-07T09:08:01;10.22;69.09
70534;SHT31;58088;51.186;17.130;2023-05-07T09:10:29;10.26;69.22
70534;SHT31;58088;51.186;17.130;2023-05-07T09:12:58;10.31;69.31
70534;SHT31;58088;51.186;17.130;2023-05-07T09:15:24;10.35;69.38
70534;SHT31;58088;51.186;17.130;2023-05-07T09:17:52;10.39;69.41
70534;SHT31;58088;51.186;17.130;2023-05-07T09:20:19;10.43;69.52
70534;SHT31;58088;51.186;17.130;2023-05-07T09:22:46;10.50;69.35
70534;SHT31;58088;51.186;17.130;2023-05-07T09:25:14;10.60;69.41
70534;SHT31;58088;51.186;17.130;2023-05-07T09:27:41;10.72;69.26
70534;SHT31;58088;51.186;17.130;2023-05-07T09:30:08;10.84;69.34
70534;SHT31;58088;51.186;17.130;2023-05-07T09:32:36;10.91;68.83
70534;SHT31;58088;51.186;17.130;2023-05-07T09:35:16;10.96;68.67
70534;SHT31;58088;51.186;17.130;2023-05-07T09:37:44;11.01;68.47
70534;SHT31;58088;51.186;17.130;2023-05-07T09:40:24;11.05;68.21
70534;SHT31;58088;51.186;17.130;2023-05-07T09:42:53;11.07;67.89
70534;SHT31;58088;51.186;17.130;2023-05-07T09:45:27;11.06;67.53
70534;SHT31;58088;51.186;17.130;2023-05-07T09:47:56;11.11;67.37
70534;SHT31;58088;51.186;17.130;2023-05-07T09:50:35;11.23;67.24
70534;SHT31;58088;51.186;17.130;2023-05-07T09:53:10;11.37;66.99
70534;SHT31;58088;51.186;17.130;2023-05-07T09:55:39;11.42;66.54
70534;SHT31;58088;51.186;17.130;2023-05-07T09:58:06;11.43;66.20
70534;SHT31;58088;51.186;17.130;2023-05-07T10:00:33;11.46;66.14
70534;SHT31;58088;51.186;17.130;2023-05-07T10:03:03;11.43;65.96
70534;SHT31;58088;51.186;17.130;2023-05-07T10:05:40;11.46;65.92
70534;SHT31;58088;51.186;17.130;2023-05-07T10:08:10;11.52;65.65
70534;SHT31;58088;51.186;17.130;2023-05-07T10:10:37;11.61;65.72
70534;SHT31;58088;51.186;17.130;2023-05-07T10:13:07;11.71;65.19
70534;SHT31;58088;51.186;17.130;2023-05-07T10:15:37;11.79;65.14
70534;SHT31;58088;51.186;17.130;2023-05-07T10:18:04;11.86;64.66
70534;SHT31;58088;51.186;17.130;2023-05-07T10:20:33;11.93;64.42
70534;SHT31;58088;51.186;17.130;2023-05-07T10:23:03;11.98;64.35
70534;SHT31;58088;51.186;17.130;2023-05-07T10:25:36;12.05;64.46
70534;SHT31;58088;51.186;17.130;2023-05-07T10:28:08;12.11;64.51
70534;SHT31;58088;51.186;17.130;2023-05-07T10:33:28;12.26;64.41
70534;SHT31;58088;51.186;17.130;2023-05-07T10:36:00;12.28;64.02
70534;SHT31;58088;51.186;17.130;2023-05-07T10:38:30;12.28;63.73
70534;SHT31;58088;51.186;17.130;2023-05-07T10:40:59;12.31;63.40
70534;SHT31;58088;51.186;17.130;2023-05-07T10:43:37;12.31;63.08
70534;SHT31;58088;51.186;17.130;2023-05-07T10:46:16;12.33;63.16
70534;SHT31;58088;51.186;17.130;2023-05-07T10:49:07;12.30;62.99
70534;SHT31;58088;51.186;17.130;2023-05-07T10:51:40;12.31;63.08
70534;SHT31;58088;51.186;17.130;2023-05-07T10:56:45;12.38;62.87
70534;SHT31;58088;51.186;17.130;2023-05-07T11:01:52;12.38;62.71
70534;SHT31;58088;51.186;17.130;2023-05-07T11:04:43;12.40;62.61
70534;SHT31;58088;51.186;17.130;2023-05-07T11:07:24;12.39;62.43
70534;SHT31;58088;51.186;17.130;2023-05-07T11:10:05;12.38;62.36
70534;SHT31;58088;51.186;17.130;2023-05-07T11:15:14;12.31;61.99
70534;SHT31;58088;51.186;17.130;2023-05-07T11:18:02;12.36;62.44
70534;SHT31;58088;51.186;17.130;2023-05-07T11:20:48;12.44;62.54
70534;SHT31;58088;51.186;17.130;2023-05-07T11:26:16;12.49;61.77
70534;SHT31;58088;51.186;17.130;2023-05-07T11:28:43;12.45;62.02
70534;SHT31;58088;51.186;17.130;2023-05-07T11:31:12;12.40;61.56
70534;SHT31;58088;51.186;17.130;2023-05-07T11:33:39;12.32;60.78
70534;SHT31;58088;51.186;17.130;2023-05-07T11:36:08;12.28;60.53
70534;SHT31;58088;51.186;17.130;2023-05-07T11:38:39;12.32;61.05
70534;SHT31;58088;51.186;17.130;2023-05-07T11:41:05;12.34;61.21
70534;SHT31;58088;51.186;17.130;2023-05-07T11:43:34;12.41;60.93
70534;SHT31;58088;51.186;17.130;2023-05-07T11:46:08;12.48;60.93
70534;SHT31;58088;51.186;17.130;2023-05-07T11:48:36;12.55;60.91
70534;SHT31;58088;51.186;17.130;2023-05-07T11:51:05;12.59;60.39
70534;SHT31;58088;51.186;17.130;2023-05-07T11:53:38;12.63;60.63
70534;SHT31;58088;51.186;17.130;2023-05-07T11:56:07;12.64;60.98
70534;SHT31;58088;51.186;17.130;2023-05-07T11:58:36;12.60;60.63
70534;SHT31;58088;51.186;17.130;2023-05-07T12:01:06;12.52;60.58
70534;SHT31;58088;51.186;17.130;2023-05-07T12:03:37;12.57;61.12
70534;SHT31;58088;51.186;17.130;2023-05-07T12:06:16;12.65;61.18
70534;SHT31;58088;51.186;17.130;2023-05-07T12:08:44;12.73;61.18
70534;SHT31;58088;51.186;17.130;2023-05-07T12:11:13;12.84;61.16
70534;SHT31;58088;51.186;17.130;2023-05-07T12:13:47;12.86;60.43
70534;SHT31;58088;51.186;17.130;2023-05-07T12:16:13;12.82;60.28
70534;SHT31;58088;51.186;17.130;2023-05-07T12:18:41;12.81;60.02
70534;SHT31;58088;51.186;17.130;2023-05-07T12:21:08;12.80;60.07
70534;SHT31;58088;51.186;17.130;2023-05-07T12:23:36;12.75;60.26
70534;SHT31;58088;51.186;17.130;2023-05-07T12:26:04;12.73;60.54
70534;SHT31;58088;51.186;17.130;2023-05-07T12:28:31;12.77;60.61
70534;SHT31;58088;51.186;17.130;2023-05-07T12:31:03;12.84;60.38
70534;SHT31;58088;51.186;17.130;2023-05-07T12:33:31;12.90;60.33
70534;SHT31;58088;51.186;17.130;2023-05-07T12:35:57;12.96;60.11
70534;SHT31;58088;51.186;17.130;2023-05-07T12:38:24;12.93;59.34
70534;SHT31;58088;51.186;17.130;2023-05-07T12:40:53;12.86;59.18
70534;SHT31;58088;51.186;17.130;2023-05-07T12:43:20;12.85;59.32
70534;SHT31;58088;51.186;17.130;2023-05-07T12:45:55;12.86;59.32
70534;SHT31;58088;51.186;17.130;2023-05-07T12:48:25;12.82;59.15
70534;SHT31;58088;51.186;17.130;2023-05-07T12:50:52;12.77;59.33
70534;SHT31;58088;51.186;17.130;2023-05-07T12:53:20;12.70;59.41
70534;SHT31;58088;51.186;17.130;2023-05-07T12:55:49;12.69;59.62
70534;SHT31;58088;51.186;17.130;2023-05-07T12:58:20;12.69;59.53
70534;SHT31;58088;51.186;17.130;2023-05-07T13:00:51;12.66;59.35
70534;SHT31;58088;51.186;17.130;2023-05-07T13:03:36;12.57;59.35
70534;SHT31;58088;51.186;17.130;2023-05-07T13:06:07;12.50;59.61
70534;SHT31;58088;51.186;17.130;2023-05-07T13:08:36;12.44;59.99
70534;SHT31;58088;51.186;17.130;2023-05-07T13:11:09;12.38;60.01
70534;SHT31;58088;51.186;17.130;2023-05-07T13:13:37;12.38;60.21
70534;SHT31;58088;51.186;17.130;2023-05-07T13:16:06;12.35;60.46
70534;SHT31;58088;51.186;17.130;2023-05-07T13:18:37;12.36;61.01
70534;SHT31;58088;51.186;17.130;2023-05-07T13:21:05;12.40;60.63
70534;SHT31;58088;51.186;17.130;2023-05-07T13:23:32;12.41;59.95
70534;SHT31;58088;51.186;17.130;2023-05-07T13:25:58;12.43;60.07
70534;SHT31;58088;51.186;17.130;2023-05-07T13:28:28;12.46;60.13
70534;SHT31;58088;51.186;17.130;2023-05-07T13:30:54;12.48;60.22
70534;SHT31;58088;51.186;17.130;2023-05-07T13:33:20;12.47;59.72
70534;SHT31;58088;51.186;17.130;2023-05-07T13:35:46;12.41;59.31
70534;SHT31;58088;51.186;17.130;2023-05-07T13:38:13;12.40;59.48
70534;SHT31;58088;51.186;17.130;2023-05-07T13:40:41;12.38;59.43
70534;SHT31;58088;51.186;17.130;2023-05-07T13:43:07;12.36;59.37
70534;SHT31;58088;51.186;17.130;2023-05-07T13:45:33;12.40;59.73
70534;SHT31;58088;51.186;17.130;2023-05-07T13:47:59;12.45;59.83
70534;SHT31;58088;51.186;17.130;2023-05-07T13:50:26;12.47;59.62
70534;SHT31;58088;51.186;17.130;2023-05-07T13:52:52;12.44;59.37
70534;SHT31;58088;51.186;17.130;2023-05-07T13:55:19;12.35;58.93
70534;SHT31;58088;51.186;17.130;2023-05-07T13:57:46;12.27;58.90
70534;SHT31;58088;51.186;17.130;2023-05-07T14:00:13;12.23;59.21
70534;SHT31;58088;51.186;17.130;2023-05-07T14:02:41;12.19;59.33
70534;SHT31;58088;51.186;17.130;2023-05-07T14:05:07;12.15;59.57
70534;SHT31;58088;51.186;17.130;2023-05-07T14:07:35;12.16;59.77
70534;SHT31;58088;51.186;17.130;2023-05-07T14:10:02;12.16;59.76
70534;SHT31;58088;51.186;17.130;2023-05-07T14:12:28;12.15;59.86
70534;SHT31;58088;51.186;17.130;2023-05-07T14:14:55;12.15;59.88
70534;SHT31;58088;51.186;17.130;2023-05-07T14:17:21;12.14;59.81
70534;SHT31;58088;51.186;17.130;2023-05-07T14:19:50;12.09;59.90
70534;SHT31;58088;51.186;17.130;2023-05-07T14:22:16;12.07;59.81
70534;SHT31;58088;51.186;17.130;2023-05-07T14:24:43;12.03;59.63
70534;SHT31;58088;51.186;17.130;2023-05-07T14:27:09;12.03;59.99
70534;SHT31;58088;51.186;17.130;2023-05-07T14:29:35;12.09;60.25
70534;SHT31;58088;51.186;17.130;2023-05-07T14:32:02;12.12;60.50
70534;SHT31;58088;51.186;17.130;2023-05-07T14:34:28;12.09;60.09
70534;SHT31;58088;51.186;17.130;2023-05-07T14:36:55;12.05;60.08
70534;SHT31;58088;51.186;17.130;2023-05-07T14:39:21;12.07;60.30
70534;SHT31;58088;51.186;17.130;2023-05-07T14:41:47;12.09;60.29
70534;SHT31;58088;51.186;17.130;2023-05-07T14:44:13;12.11;60.21
70534;SHT31;58088;51.186;17.130;2023-05-07T14:46:40;12.15;60.32
70534;SHT31;58088;51.186;17.130;2023-05-07T14:49:06;12.19;60.49
70534;SHT31;58088;51.186;17.130;2023-05-07T14:51:36;12.20;60.52
70534;SHT31;58088;51.186;17.130;2023-05-07T14:54:02;12.25;60.66
70534;SHT31;58088;51.186;17.130;2023-05-07T14:56:29;12.28;60.59
70534;SHT31;58088;51.186;17.130;2023-05-07T14:58:55;12.30;60.42
70534;SHT31;58088;51.186;17.130;2023-05-07T15:01:22;12.35;60.38
70534;SHT31;58088;51.186;17.130;2023-05-07T15:03:48;12.40;60.17
70534;SHT31;58088;51.186;17.130;2023-05-07T15:06:14;12.36;59.89
70534;SHT31;58088;51.186;17.130;2023-05-07T15:08:40;12.34;60.12
70534;SHT31;58088;51.186;17.130;2023-05-07T15:11:06;12.35;60.12
70534;SHT31;58088;51.186;17.130;2023-05-07T15:13:32;12.35;59.98
70534;SHT31;58088;51.186;17.130;2023-05-07T15:15:59;12.38;60.23
70534;SHT31;58088;51.186;17.130;2023-05-07T15:18:25;12.38;60.30
70534;SHT31;58088;51.186;17.130;2023-05-07T15:20:52;12.39;60.17
70534;SHT31;58088;51.186;17.130;2023-05-07T15:23:18;12.38;60.22
70534;SHT31;58088;51.186;17.130;2023-05-07T15:25:46;12.34;60.23
70534;SHT31;58088;51.186;17.130;2023-05-07T15:28:13;12.35;60.32
70534;SHT31;58088;51.186;17.130;2023-05-07T15:30:40;12.32;59.94
70534;SHT31;58088;51.186;17.130;2023-05-07T15:33:06;12.29;59.85
70534;SHT31;58088;51.186;17.130;2023-05-07T15:35:32;12.27;60.18
70534;SHT31;58088;51.186;17.130;2023-05-07T15:37:58;12.23;59.99
70534;SHT31;58088;51.186;17.130;2023-05-07T15:40:24;12.19;59.93